sensor_id;sensor_type;location;lat;lon;timestamp;temperature;humidity
38788;DHT22;24536;45.488;12.238;2023-10-08T00:01:45;22.20;90.50
38788;DHT22;24536;45.488;12.238;2023-10-08T00:04:10;22.10;90.50
38788;DHT22;24536;45.488;12.238;2023-10-08T00:06:36;22.10;90.50
38788;DHT22;24536;45.488;12.238;2023-10-08T00:09:03;22.10;90.60
38788;DHT22;24536;45.488;12.238;2023-10-08T00:11:35;22.00;90.60
38788;DHT22;24536;45.488;12.238;2023-10-08T00:14:02;22.10;90.70
38788;DHT22;24536;45.488;12.238;2023-10-08T00:16:30;22.00;90.70
38788;DHT22;24536;45.488;12.238;2023-10-08T00:18:59;22.00;90.70
38788;DHT22;24536;45.488;12.238;2023-10-08T00:21:33;22.00;90.70
38788;DHT22;24536;45.488;12.238;2023-10-08T00:24:01;22.00;90.70
38788;DHT22;24536;45.488;12.238;2023-10-08T00:26:31;21.90;90.70
38788;DHT22;24536;45.488;12.238;2023-10-08T00:29:00;22.00;90.80
38788;DHT22;24536;45.488;12.238;2023-10-08T00:31:27;22.00;90.80
38788;DHT22;24536;45.488;12.238;2023-10-08T00:33:59;22.00;90.70
38788;DHT22;24536;45.488;12.238;2023-10-08T00:36:25;22.00;90.70
38788;DHT22;24536;45.488;12.238;2023-10-08T00:38:51;22.00;90.70
38788;DHT22;24536;45.488;12.238;2023-10-08T00:41:24;21.90;90.70
38788;DHT22;24536;45.488;12.238;2023-10-08T00:43:54;21.90;90.70
38788;DHT22;24536;45.488;12.238;2023-10-08T00:46:25;21.80;90.70
38788;DHT22;24536;45.488;12.238;2023-10-08T00:48:57;21.80;90.80
38788;DHT22;24536;45.488;12.238;2023-10-08T00:51:25;21.80;90.80
38788;DHT22;24536;45.488;12.238;2023-10-08T00:53:58;21.80;90.80
38788;DHT22;24536;45.488;12.238;2023-10-08T00:56:32;21.90;90.80
38788;DHT22;24536;45.488;12.238;2023-10-08T00:59:33;21.90;90.70
38788;DHT22;24536;45.488;12.238;2023-10-08T01:02:11;21.80;90.60
38788;DHT22;24536;45.488;12.238;2023-10-08T01:04:45;21.80;90.60
38788;DHT22;24536;45.488;12.238;2023-10-08T01:07:12;21.80;90.70
38788;DHT22;24536;45.488;12.238;2023-10-08T01:09:42;21.80;90.70
38788;DHT22;24536;45.488;12.238;2023-10-08T01:12:26;21.80;90.70
38788;DHT22;24536;45.488;12.238;2023-10-08T01:15:00;21.70;90.80
38788;DHT22;24536;45.488;12.238;2023-10-08T01:17:52;21.70;90.80
38788;DHT22;24536;45.488;12.238;2023-10-08T01:20:24;21.70;90.80
38788;DHT22;24536;45.488;12.238;2023-10-08T01:23:10;21.70;90.80
38788;DHT22;24536;45.488;12.238;2023-10-08T01:25:40;21.70;90.80
38788;DHT22;24536;45.488;12.238;2023-10-08T01:28:07;21.70;90.80
38788;DHT22;24536;45.488;12.238;2023-10-08T01:30:46;21.70;90.80
38788;DHT22;24536;45.488;12.238;2023-10-08T01:33:13;21.60;90.90
38788;DHT22;24536;45.488;12.238;2023-10-08T01:35:41;21.60;90.90
38788;DHT22;24536;45.488;12.238;2023-10-08T01:38:08;21.50;90.90
38788;DHT22;24536;45.488;12.238;2023-10-08T01:40:42;21.50;91.00
38788;DHT22;24536;45.488;12.238;2023-10-08T01:43:08;21.50;91.00
38788;DHT22;24536;45.488;12.238;2023-10-08T01:45:36;21.40;91.00
38788;DHT22;24536;45.488;12.238;2023-10-08T01:48:07;21.50;91.10
38788;DHT22;24536;45.488;12.238;2023-10-08T01:50:35;21.40;91.10
38788;DHT22;24536;45.488;12.238;2023-10-08T01:53:01;21.40;91.10
38788;DHT22;24536;45.488;12.238;2023-10-08T01:55:26;21.40;91.10
38788;DHT22;24536;45.488;12.238;2023-10-08T01:57:53;21.40;91.10
38788;DHT22;24536;45.488;12.238;2023-10-08T02:00:19;21.30;91.20
38788;DHT22;24536;45.488;12.238;2023-10-08T02:02:49;21.30;91.30
38788;DHT22;24536;45.488;12.238;2023-10-08T02:05:19;21.30;91.30
38788;DHT22;24536;45.488;12.238;2023-10-08T02:07:46;21.30;91.20
38788;DHT22;24536;45.488;12.238;2023-10-08T02:10:12;21.30;91.30
38788;DHT22;24536;45.488;12.238;2023-10-08T02:12:41;21.30;91.30
38788;DHT22;24536;45.488;12.238;2023-10-08T02:15:08;21.20;91.40
38788;DHT22;24536;45.488;12.238;2023-10-08T02:17:34;21.20;91.40
38788;DHT22;24536;45.488;12.238;2023-10-08T02:20:00;21.20;91.40
38788;DHT22;24536;45.488;12.238;2023-10-08T02:22:30;21.20;91.40
38788;DHT22;24536;45.488;12.238;2023-10-08T02:24:56;21.10;91.40
38788;DHT22;24536;45.488;12.238;2023-10-08T02:27:27;21.10;91.50
38788;DHT22;24536;45.488;12.238;2023-10-08T02:29:53;21.00;91.50
38788;DHT22;24536;45.488;12.238;2023-10-08T02:32:20;21.00;91.50
38788;DHT22;24536;45.488;12.238;2023-10-08T02:34:50;21.00;91.50
38788;DHT22;24536;45.488;12.238;2023-10-08T02:37:16;21.00;91.80
38788;DHT22;24536;45.488;12.238;2023-10-08T02:39:42;21.10;91.60
38788;DHT22;24536;45.488;12.238;2023-10-08T02:42:08;21.00;91.50
38788;DHT22;24536;45.488;12.238;2023-10-08T02:44:36;21.00;91.70
38788;DHT22;24536;45.488;12.238;2023-10-08T02:47:09;21.00;91.50
38788;DHT22;24536;45.488;12.238;2023-10-08T02:49:37;21.00;91.50
38788;DHT22;24536;45.488;12.238;2023-10-08T02:52:06;20.90;91.50
38788;DHT22;24536;45.488;12.238;2023-10-08T02:54:34;20.90;91.50
38788;DHT22;24536;45.488;12.238;2023-10-08T02:57:02;20.90;91.60
38788;DHT22;24536;45.488;12.238;2023-10-08T02:59:36;20.90;91.50
38788;DHT22;24536;45.488;12.238;2023-10-08T03:02:11;20.90;91.50
38788;DHT22;24536;45.488;12.238;2023-10-08T03:04:44;20.90;91.50
38788;DHT22;24536;45.488;12.238;2023-10-08T03:07:13;20.90;91.50
38788;DHT22;24536;45.488;12.238;2023-10-08T03:09:47;20.90;91.60
38788;DHT22;24536;45.488;12.238;2023-10-08T03:12:15;20.90;91.50
38788;DHT22;24536;45.488;12.238;2023-10-08T03:14:42;20.90;91.40
38788;DHT22;24536;45.488;12.238;2023-10-08T03:17:29;20.90;91.40
38788;DHT22;24536;45.488;12.238;2023-10-08T03:19:56;20.90;91.40
38788;DHT22;24536;45.488;12.238;2023-10-08T03:22:47;20.90;91.40
38788;DHT22;24536;45.488;12.238;2023-10-08T03:25:13;20.90;91.40
38788;DHT22;24536;45.488;12.238;2023-10-08T03:27:43;20.90;91.40
38788;DHT22;24536;45.488;12.238;2023-10-08T03:30:09;20.80;91.40
38788;DHT22;24536;45.488;12.238;2023-10-08T03:32:42;20.80;91.40
38788;DHT22;24536;45.488;12.238;2023-10-08T03:35:08;20.80;91.40
38788;DHT22;24536;45.488;12.238;2023-10-08T03:37:36;20.80;91.50
38788;DHT22;24536;45.488;12.238;2023-10-08T03:40:07;20.80;91.40
38788;DHT22;24536;45.488;12.238;2023-10-08T03:42:55;20.80;91.30
38788;DHT22;24536;45.488;12.238;2023-10-08T03:45:21;20.80;91.40
38788;DHT22;24536;45.488;12.238;2023-10-08T03:48:06;20.70;91.40
38788;DHT22;24536;45.488;12.238;2023-10-08T03:50:33;20.70;91.40
38788;DHT22;24536;45.488;12.238;2023-10-08T03:53:07;20.70;91.50
38788;DHT22;24536;45.488;12.238;2023-10-08T03:55:38;20.70;91.40
38788;DHT22;24536;45.488;12.238;2023-10-08T03:58:09;20.80;91.40
38788;DHT22;24536;45.488;12.238;2023-10-08T04:00:55;20.70;91.30
38788;DHT22;24536;45.488;12.238;2023-10-08T04:03:37;20.70;91.30
38788;DHT22;24536;45.488;12.238;2023-10-08T04:06:19;20.70;91.30
38788;DHT22;24536;45.488;12.238;2023-10-08T04:08:48;20.60;91.40
38788;DHT22;24536;45.488;12.238;2023-10-08T04:11:32;20.60;91.60
38788;DHT22;24536;45.488;12.238;2023-10-08T04:14:04;20.60;91.60
38788;DHT22;24536;45.488;12.238;2023-10-08T04:16:32;20.60;91.50
38788;DHT22;24536;45.488;12.238;2023-10-08T04:19:02;20.60;91.60
38788;DHT22;24536;45.488;12.238;2023-10-08T04:21:29;20.60;91.60
38788;DHT22;24536;45.488;12.238;2023-10-08T04:23:55;20.60;91.70
38788;DHT22;24536;45.488;12.238;2023-10-08T04:26:23;20.60;91.70
38788;DHT22;24536;45.488;12.238;2023-10-08T04:28:56;20.60;91.70
38788;DHT22;24536;45.488;12.238;2023-10-08T04:31:30;20.70;91.60
38788;DHT22;24536;45.488;12.238;2023-10-08T04:34:03;20.60;91.50
38788;DHT22;24536;45.488;12.238;2023-10-08T04:36:38;20.60;91.50
38788;DHT22;24536;45.488;12.238;2023-10-08T04:39:07;20.60;91.60
38788;DHT22;24536;45.488;12.238;2023-10-08T04:41:42;20.50;91.60
38788;DHT22;24536;45.488;12.238;2023-10-08T04:44:10;20.50;91.60
38788;DHT22;24536;45.488;12.238;2023-10-08T04:46:44;20.50;91.70
38788;DHT22;24536;45.488;12.238;2023-10-08T04:49:17;20.50;91.70
38788;DHT22;24536;45.488;12.238;2023-10-08T04:51:57;20.50;91.80
38788;DHT22;24536;45.488;12.238;2023-10-08T04:54:25;20.50;91.80
38788;DHT22;24536;45.488;12.238;2023-10-08T04:57:01;20.60;91.80
38788;DHT22;24536;45.488;12.238;2023-10-08T04:59:31;20.60;91.70
38788;DHT22;24536;45.488;12.238;2023-10-08T05:02:01;20.60;91.70
38788;DHT22;24536;45.488;12.238;2023-10-08T05:04:39;20.60;91.70
38788;DHT22;24536;45.488;12.238;2023-10-08T05:07:18;20.60;91.70
38788;DHT22;24536;45.488;12.238;2023-10-08T05:10:06;20.60;91.70
38788;DHT22;24536;45.488;12.238;2023-10-08T05:12:32;20.50;91.80
38788;DHT22;24536;45.488;12.238;2023-10-08T05:15:04;20.50;92.00
38788;DHT22;24536;45.488;12.238;2023-10-08T05:17:36;20.30;92.30
38788;DHT22;24536;45.488;12.238;2023-10-08T05:20:21;20.20;92.20
38788;DHT22;24536;45.488;12.238;2023-10-08T05:23:11;20.20;92.40
38788;DHT22;24536;45.488;12.238;2023-10-08T05:25:50;20.10;92.50
38788;DHT22;24536;45.488;12.238;2023-10-08T05:28:31;20.10;92.40
38788;DHT22;24536;45.488;12.238;2023-10-08T05:31:09;20.10;92.50
38788;DHT22;24536;45.488;12.238;2023-10-08T05:33:42;20.20;92.50
38788;DHT22;24536;45.488;12.238;2023-10-08T05:36:27;20.20;92.40
38788;DHT22;24536;45.488;12.238;2023-10-08T05:39:17;20.20;92.40
38788;DHT22;24536;45.488;12.238;2023-10-08T05:42:00;20.10;92.40
38788;DHT22;24536;45.488;12.238;2023-10-08T05:44:41;20.10;92.40
38788;DHT22;24536;45.488;12.238;2023-10-08T05:47:13;20.00;92.40
38788;DHT22;24536;45.488;12.238;2023-10-08T05:50:04;20.00;92.30
38788;DHT22;24536;45.488;12.238;2023-10-08T05:52:47;19.90;92.30
38788;DHT22;24536;45.488;12.238;2023-10-08T05:55:35;19.90;92.40
38788;DHT22;24536;45.488;12.238;2023-10-08T05:58:12;19.80;92.40
38788;DHT22;24536;45.488;12.238;2023-10-08T06:00:43;19.80;92.40
38788;DHT22;24536;45.488;12.238;2023-10-08T06:03:14;19.90;92.40
38788;DHT22;24536;45.488;12.238;2023-10-08T06:06:00;19.80;92.40
38788;DHT22;24536;45.488;12.238;2023-10-08T06:08:41;19.80;92.40
38788;DHT22;24536;45.488;12.238;2023-10-08T06:11:25;19.90;92.50
38788;DHT22;24536;45.488;12.238;2023-10-08T06:14:09;19.90;92.40
38788;DHT22;24536;45.488;12.238;2023-10-08T06:17:07;20.00;92.30
38788;DHT22;24536;45.488;12.238;2023-10-08T06:19:50;20.00;92.20
38788;DHT22;24536;45.488;12.238;2023-10-08T06:22:18;19.90;92.20
38788;DHT22;24536;45.488;12.238;2023-10-08T06:24:44;20.00;92.30
38788;DHT22;24536;45.488;12.238;2023-10-08T06:27:10;20.00;92.30
38788;DHT22;24536;45.488;12.238;2023-10-08T06:29:42;20.00;92.30
38788;DHT22;24536;45.488;12.238;2023-10-08T06:32:10;20.00;92.30
38788;DHT22;24536;45.488;12.238;2023-10-08T06:34:37;20.10;92.30
38788;DHT22;24536;45.488;12.238;2023-10-08T06:37:06;20.10;92.30
38788;DHT22;24536;45.488;12.238;2023-10-08T06:39:33;20.30;92.10
38788;DHT22;24536;45.488;12.238;2023-10-08T06:42:13;20.30;92.00
38788;DHT22;24536;45.488;12.238;2023-10-08T06:44:41;20.30;91.70
38788;DHT22;24536;45.488;12.238;2023-10-08T06:47:10;20.40;91.60
38788;DHT22;24536;45.488;12.238;2023-10-08T06:49:35;20.30;91.50
38788;DHT22;24536;45.488;12.238;2023-10-08T06:52:06;20.40;91.50
38788;DHT22;24536;45.488;12.238;2023-10-08T06:54:36;20.30;91.50
38788;DHT22;24536;45.488;12.238;2023-10-08T06:57:02;20.30;91.60
38788;DHT22;24536;45.488;12.238;2023-10-08T06:59:27;20.20;91.60
38788;DHT22;24536;45.488;12.238;2023-10-08T07:01:57;20.20;91.60
38788;DHT22;24536;45.488;12.238;2023-10-08T07:04:24;20.20;91.70
38788;DHT22;24536;45.488;12.238;2023-10-08T07:06:50;20.20;91.80
38788;DHT22;24536;45.488;12.238;2023-10-08T07:09:17;20.30;91.80
38788;DHT22;24536;45.488;12.238;2023-10-08T07:11:52;20.30;91.70
38788;DHT22;24536;45.488;12.238;2023-10-08T07:14:22;20.30;91.70
38788;DHT22;24536;45.488;12.238;2023-10-08T07:16:50;20.40;91.60
38788;DHT22;24536;45.488;12.238;2023-10-08T07:19:20;20.40;91.60
38788;DHT22;24536;45.488;12.238;2023-10-08T07:21:49;20.50;91.70
38788;DHT22;24536;45.488;12.238;2023-10-08T07:24:19;20.50;91.70
38788;DHT22;24536;45.488;12.238;2023-10-08T07:26:47;20.50;91.70
38788;DHT22;24536;45.488;12.238;2023-10-08T07:29:16;20.60;91.80
38788;DHT22;24536;45.488;12.238;2023-10-08T07:31:47;20.70;91.80
38788;DHT22;24536;45.488;12.238;2023-10-08T07:34:15;20.80;91.50
38788;DHT22;24536;45.488;12.238;2023-10-08T07:36:46;20.80;91.50
38788;DHT22;24536;45.488;12.238;2023-10-08T07:39:15;20.80;91.50
38788;DHT22;24536;45.488;12.238;2023-10-08T07:41:57;20.90;91.50
38788;DHT22;24536;45.488;12.238;2023-10-08T07:44:25;21.00;91.50
38788;DHT22;24536;45.488;12.238;2023-10-08T07:46:54;21.20;91.50
38788;DHT22;24536;45.488;12.238;2023-10-08T07:49:26;21.30;91.30
38788;DHT22;24536;45.488;12.238;2023-10-08T07:51:56;21.40;91.00
38788;DHT22;24536;45.488;12.238;2023-10-08T07:54:25;21.40;90.90
38788;DHT22;24536;45.488;12.238;2023-10-08T07:56:54;21.50;90.90
38788;DHT22;24536;45.488;12.238;2023-10-08T07:59:42;21.50;90.90
38788;DHT22;24536;45.488;12.238;2023-10-08T08:02:12;21.50;90.80
38788;DHT22;24536;45.488;12.238;2023-10-08T08:04:42;21.60;90.70
38788;DHT22;24536;45.488;12.238;2023-10-08T08:07:11;21.70;90.70
38788;DHT22;24536;45.488;12.238;2023-10-08T08:09:44;21.80;90.80
38788;DHT22;24536;45.488;12.238;2023-10-08T08:12:17;21.90;90.70
38788;DHT22;24536;45.488;12.238;2023-10-08T08:14:45;22.10;90.70
38788;DHT22;24536;45.488;12.238;2023-10-08T08:17:11;22.20;90.50
38788;DHT22;24536;45.488;12.238;2023-10-08T08:19:43;22.30;90.30
38788;DHT22;24536;45.488;12.238;2023-10-08T08:22:14;22.50;90.20
38788;DHT22;24536;45.488;12.238;2023-10-08T08:24:56;22.60;90.00
38788;DHT22;24536;45.488;12.238;2023-10-08T08:27:32;22.80;89.80
38788;DHT22;24536;45.488;12.238;2023-10-08T08:29:58;22.90;89.30
38788;DHT22;24536;45.488;12.238;2023-10-08T08:32:37;23.10;88.70
38788;DHT22;24536;45.488;12.238;2023-10-08T08:35:09;23.30;88.30
38788;DHT22;24536;45.488;12.238;2023-10-08T08:37:36;23.40;87.70
38788;DHT22;24536;45.488;12.238;2023-10-08T08:40:10;23.40;87.20
38788;DHT22;24536;45.488;12.238;2023-10-08T08:42:45;23.50;86.40
38788;DHT22;24536;45.488;12.238;2023-10-08T08:45:13;23.50;85.30
38788;DHT22;24536;45.488;12.238;2023-10-08T08:47:41;23.50;86.10
38788;DHT22;24536;45.488;12.238;2023-10-08T08:50:07;23.50;86.10
38788;DHT22;24536;45.488;12.238;2023-10-08T08:52:38;23.60;86.10
38788;DHT22;24536;45.488;12.238;2023-10-08T08:55:04;23.60;85.80
38788;DHT22;24536;45.488;12.238;2023-10-08T08:57:36;23.70;86.00
38788;DHT22;24536;45.488;12.238;2023-10-08T09:00:06;23.80;86.30
38788;DHT22;24536;45.488;12.238;2023-10-08T09:02:37;24.00;86.20
38788;DHT22;24536;45.488;12.238;2023-10-08T09:05:04;24.10;86.10
38788;DHT22;24536;45.488;12.238;2023-10-08T09:07:58;24.40;85.80
38788;DHT22;24536;45.488;12.238;2023-10-08T09:10:26;24.50;85.10
38788;DHT22;24536;45.488;12.238;2023-10-08T09:12:58;24.70;83.30
38788;DHT22;24536;45.488;12.238;2023-10-08T09:15:28;24.70;83.70
38788;DHT22;24536;45.488;12.238;2023-10-08T09:17:55;24.80;83.30
38788;DHT22;24536;45.488;12.238;2023-10-08T09:20:26;24.80;83.70
38788;DHT22;24536;45.488;12.238;2023-10-08T09:23:10;24.90;83.70
38788;DHT22;24536;45.488;12.238;2023-10-08T09:25:40;25.10;83.30
38788;DHT22;24536;45.488;12.238;2023-10-08T09:28:06;25.30;82.80
38788;DHT22;24536;45.488;12.238;2023-10-08T09:30:39;25.40;82.10
38788;DHT22;24536;45.488;12.238;2023-10-08T09:33:09;25.50;81.90
38788;DHT22;24536;45.488;12.238;2023-10-08T09:35:35;25.60;82.00
38788;DHT22;24536;45.488;12.238;2023-10-08T09:38:03;25.70;82.10
38788;DHT22;24536;45.488;12.238;2023-10-08T09:40:30;25.90;81.80
38788;DHT22;24536;45.488;12.238;2023-10-08T09:42:55;26.00;81.10
38788;DHT22;24536;45.488;12.238;2023-10-08T09:45:22;26.00;80.70
38788;DHT22;24536;45.488;12.238;2023-10-08T09:47:54;26.00;80.70
38788;DHT22;24536;45.488;12.238;2023-10-08T09:50:32;26.10;81.00
38788;DHT22;24536;45.488;12.238;2023-10-08T09:53:04;26.30;81.00
38788;DHT22;24536;45.488;12.238;2023-10-08T09:55:33;26.40;80.70
38788;DHT22;24536;45.488;12.238;2023-10-08T09:58:00;26.60;80.30
38788;DHT22;24536;45.488;12.238;2023-10-08T10:00:27;26.70;80.10
38788;DHT22;24536;45.488;12.238;2023-10-08T10:02:59;26.80;79.50
38788;DHT22;24536;45.488;12.238;2023-10-08T10:05:30;27.00;78.90
38788;DHT22;24536;45.488;12.238;2023-10-08T10:07:58;27.10;78.40
38788;DHT22;24536;45.488;12.238;2023-10-08T10:10:28;27.10;76.60
38788;DHT22;24536;45.488;12.238;2023-10-08T10:13:10;27.10;76.10
38788;DHT22;24536;45.488;12.238;2023-10-08T10:15:37;27.10;76.10
38788;DHT22;24536;45.488;12.238;2023-10-08T10:20:53;27.30;75.70
38788;DHT22;24536;45.488;12.238;2023-10-08T10:31:42;27.60;75.10
38788;DHT22;24536;45.488;12.238;2023-10-08T10:34:20;27.70;75.30
38788;DHT22;24536;45.488;12.238;2023-10-08T10:36:47;27.80;74.80
38788;DHT22;24536;45.488;12.238;2023-10-08T10:39:21;27.90;74.90
38788;DHT22;24536;45.488;12.238;2023-10-08T10:41:59;28.10;74.70
38788;DHT22;24536;45.488;12.238;2023-10-08T10:44:30;28.20;73.90
38788;DHT22;24536;45.488;12.238;2023-10-08T10:46:57;28.20;73.90
38788;DHT22;24536;45.488;12.238;2023-10-08T10:49:53;28.40;74.10
38788;DHT22;24536;45.488;12.238;2023-10-08T10:52:28;28.60;74.00
38788;DHT22;24536;45.488;12.238;2023-10-08T10:55:02;28.80;73.50
38788;DHT22;24536;45.488;12.238;2023-10-08T11:00:21;29.20;72.60
38788;DHT22;24536;45.488;12.238;2023-10-08T11:03:02;29.30;71.90
38788;DHT22;24536;45.488;12.238;2023-10-08T11:05:49;29.40;71.10
38788;DHT22;24536;45.488;12.238;2023-10-08T11:08:17;29.50;71.40
38788;DHT22;24536;45.488;12.238;2023-10-08T11:10:48;29.60;71.40
38788;DHT22;24536;45.488;12.238;2023-10-08T11:13:20;29.80;70.80
38788;DHT22;24536;45.488;12.238;2023-10-08T11:15:47;29.80;70.20
38788;DHT22;24536;45.488;12.238;2023-10-08T11:18:19;29.80;70.00
38788;DHT22;24536;45.488;12.238;2023-10-08T11:20:46;30.00;69.70
38788;DHT22;24536;45.488;12.238;2023-10-08T11:23:37;30.00;69.60
38788;DHT22;24536;45.488;12.238;2023-10-08T11:26:07;30.00;68.80
38788;DHT22;24536;45.488;12.238;2023-10-08T11:28:35;30.00;68.70
38788;DHT22;24536;45.488;12.238;2023-10-08T11:31:05;30.10;68.30
38788;DHT22;24536;45.488;12.238;2023-10-08T11:33:43;30.20;68.60
38788;DHT22;24536;45.488;12.238;2023-10-08T11:36:20;30.40;68.60
38788;DHT22;24536;45.488;12.238;2023-10-08T11:38:53;30.70;68.10
38788;DHT22;24536;45.488;12.238;2023-10-08T11:41:26;30.90;66.90
38788;DHT22;24536;45.488;12.238;2023-10-08T11:43:57;30.90;66.50
38788;DHT22;24536;45.488;12.238;2023-10-08T11:48:52;31.00;66.80
38788;DHT22;24536;45.488;12.238;2023-10-08T11:51:18;31.20;66.90
38788;DHT22;24536;45.488;12.238;2023-10-08T11:53:44;31.50;66.90
38788;DHT22;24536;45.488;12.238;2023-10-08T11:56:11;31.80;66.20
38788;DHT22;24536;45.488;12.238;2023-10-08T11:58:41;31.90;64.80
38788;DHT22;24536;45.488;12.238;2023-10-08T12:01:11;32.10;64.60
38788;DHT22;24536;45.488;12.238;2023-10-08T12:03:43;32.20;64.50
38788;DHT22;24536;45.488;12.238;2023-10-08T12:06:12;32.30;63.90
38788;DHT22;24536;45.488;12.238;2023-10-08T12:08:41;32.50;64.00
38788;DHT22;24536;45.488;12.238;2023-10-08T12:11:07;32.60;64.30
38788;DHT22;24536;45.488;12.238;2023-10-08T12:13:53;32.60;64.40
38788;DHT22;24536;45.488;12.238;2023-10-08T12:16:19;32.70;64.30
38788;DHT22;24536;45.488;12.238;2023-10-08T12:18:47;32.80;64.00
38788;DHT22;24536;45.488;12.238;2023-10-08T12:21:22;32.90;64.00
38788;DHT22;24536;45.488;12.238;2023-10-08T12:23:50;32.90;63.80
38788;DHT22;24536;45.488;12.238;2023-10-08T12:26:17;32.90;63.70
38788;DHT22;24536;45.488;12.238;2023-10-08T12:28:47;32.90;63.70
38788;DHT22;24536;45.488;12.238;2023-10-08T12:31:17;33.00;63.80
38788;DHT22;24536;45.488;12.238;2023-10-08T12:33:48;33.00;63.70
38788;DHT22;24536;45.488;12.238;2023-10-08T12:36:14;33.00;63.50
38788;DHT22;24536;45.488;12.238;2023-10-08T12:38:44;32.90;63.10
38788;DHT22;24536;45.488;12.238;2023-10-08T12:41:12;32.80;63.10
38788;DHT22;24536;45.488;12.238;2023-10-08T12:43:43;32.70;63.40
38788;DHT22;24536;45.488;12.238;2023-10-08T12:46:18;32.70;63.60
38788;DHT22;24536;45.488;12.238;2023-10-08T12:48:47;32.60;63.60
38788;DHT22;24536;45.488;12.238;2023-10-08T12:51:14;32.50;63.80
38788;DHT22;24536;45.488;12.238;2023-10-08T12:54:02;32.40;63.70
38788;DHT22;24536;45.488;12.238;2023-10-08T12:56:32;32.30;63.90
38788;DHT22;24536;45.488;12.238;2023-10-08T12:59:04;32.00;63.80
38788;DHT22;24536;45.488;12.238;2023-10-08T13:01:45;31.70;64.20
38788;DHT22;24536;45.488;12.238;2023-10-08T13:04:19;31.30;64.70
38788;DHT22;24536;45.488;12.238;2023-10-08T13:06:58;31.10;65.40
38788;DHT22;24536;45.488;12.238;2023-10-08T13:09:26;30.80;66.00
38788;DHT22;24536;45.488;12.238;2023-10-08T13:11:52;30.60;66.20
38788;DHT22;24536;45.488;12.238;2023-10-08T13:14:18;30.40;66.60
38788;DHT22;24536;45.488;12.238;2023-10-08T13:16:47;30.20;67.10
38788;DHT22;24536;45.488;12.238;2023-10-08T13:19:23;30.00;67.50
38788;DHT22;24536;45.488;12.238;2023-10-08T13:21:51;29.90;68.50
38788;DHT22;24536;45.488;12.238;2023-10-08T13:24:20;29.70;68.70
38788;DHT22;24536;45.488;12.238;2023-10-08T13:26:47;29.70;69.60
38788;DHT22;24536;45.488;12.238;2023-10-08T13:29:36;29.60;69.30
38788;DHT22;24536;45.488;12.238;2023-10-08T13:32:04;29.50;69.50
38788;DHT22;24536;45.488;12.238;2023-10-08T13:34:53;29.40;69.50
38788;DHT22;24536;45.488;12.238;2023-10-08T13:37:19;29.30;70.10
38788;DHT22;24536;45.488;12.238;2023-10-08T13:39:45;29.30;70.60
38788;DHT22;24536;45.488;12.238;2023-10-08T13:42:44;29.20;71.40
38788;DHT22;24536;45.488;12.238;2023-10-08T13:45:13;29.20;71.30
38788;DHT22;24536;45.488;12.238;2023-10-08T13:47:52;29.10;70.90
38788;DHT22;24536;45.488;12.238;2023-10-08T13:50:18;29.00;70.80
38788;DHT22;24536;45.488;12.238;2023-10-08T13:52:45;28.90;70.90
38788;DHT22;24536;45.488;12.238;2023-10-08T13:55:17;28.80;70.90
38788;DHT22;24536;45.488;12.238;2023-10-08T13:57:45;28.70;71.40
38788;DHT22;24536;45.488;12.238;2023-10-08T14:00:12;28.60;71.40
38788;DHT22;24536;45.488;12.238;2023-10-08T14:02:44;28.60;71.50
38788;DHT22;24536;45.488;12.238;2023-10-08T14:05:10;28.50;71.80
38788;DHT22;24536;45.488;12.238;2023-10-08T14:07:44;28.50;72.10
38788;DHT22;24536;45.488;12.238;2023-10-08T14:10:13;28.50;72.20
38788;DHT22;24536;45.488;12.238;2023-10-08T14:12:45;28.40;72.10
38788;DHT22;24536;45.488;12.238;2023-10-08T14:15:18;28.40;72.00
38788;DHT22;24536;45.488;12.238;2023-10-08T14:17:57;28.40;72.40
38788;DHT22;24536;45.488;12.238;2023-10-08T14:20:29;28.30;72.90
38788;DHT22;24536;45.488;12.238;2023-10-08T14:22:58;28.30;72.70
38788;DHT22;24536;45.488;12.238;2023-10-08T14:25:28;28.20;72.80
38788;DHT22;24536;45.488;12.238;2023-10-08T14:27:59;28.20;73.00
38788;DHT22;24536;45.488;12.238;2023-10-08T14:30:48;28.10;72.60
38788;DHT22;24536;45.488;12.238;2023-10-08T14:33:22;28.10;72.70
38788;DHT22;24536;45.488;12.238;2023-10-08T14:35:55;28.10;72.90
38788;DHT22;24536;45.488;12.238;2023-10-08T14:38:39;28.00;73.20
38788;DHT22;24536;45.488;12.238;2023-10-08T14:43:52;28.00;73.40
38788;DHT22;24536;45.488;12.238;2023-10-08T14:46:18;28.00;73.50
38788;DHT22;24536;45.488;12.238;2023-10-08T14:48:45;27.90;73.40
38788;DHT22;24536;45.488;12.238;2023-10-08T14:51:12;27.90;73.50
38788;DHT22;24536;45.488;12.238;2023-10-08T14:53:44;27.90;73.70
38788;DHT22;24536;45.488;12.238;2023-10-08T14:56:10;27.90;73.40
38788;DHT22;24536;45.488;12.238;2023-10-08T14:58:36;27.80;73.60
38788;DHT22;24536;45.488;12.238;2023-10-08T15:01:01;27.80;73.80
38788;DHT22;24536;45.488;12.238;2023-10-08T15:03:27;27.80;74.00
38788;DHT22;24536;45.488;12.238;2023-10-08T15:05:53;27.80;74.00
38788;DHT22;24536;45.488;12.238;2023-10-08T15:08:18;27.80;74.10
38788;DHT22;24536;45.488;12.238;2023-10-08T15:10:44;27.70;74.20
38788;DHT22;24536;45.488;12.238;2023-10-08T15:13:12;27.70;74.40
38788;DHT22;24536;45.488;12.238;2023-10-08T15:15:38;27.60;74.50
38788;DHT22;24536;45.488;12.238;2023-10-08T15:18:05;27.60;74.60
38788;DHT22;24536;45.488;12.238;2023-10-08T15:20:32;27.60;74.20
38788;DHT22;24536;45.488;12.238;2023-10-08T15:22:59;27.60;74.50
38788;DHT22;24536;45.488;12.238;2023-10-08T15:25:25;27.60;74.70
38788;DHT22;24536;45.488;12.238;2023-10-08T15:27:51;27.50;74.90
38788;DHT22;24536;45.488;12.238;2023-10-08T15:30:18;27.50;75.00
38788;DHT22;24536;45.488;12.238;2023-10-08T15:32:46;27.50;74.70
38788;DHT22;24536;45.488;12.238;2023-10-08T15:35:15;27.50;74.70
38788;DHT22;24536;45.488;12.238;2023-10-08T15:37:42;27.40;74.80
38788;DHT22;24536;45.488;12.238;2023-10-08T15:40:09;27.40;74.90
38788;DHT22;24536;45.488;12.238;2023-10-08T15:42:43;27.40;75.00
38788;DHT22;24536;45.488;12.238;2023-10-08T15:45:10;27.40;75.20
38788;DHT22;24536;45.488;12.238;2023-10-08T15:47:38;27.30;75.00
38788;DHT22;24536;45.488;12.238;2023-10-08T15:50:05;27.30;74.80
38788;DHT22;24536;45.488;12.238;2023-10-08T15:52:31;27.30;75.30
38788;DHT22;24536;45.488;12.238;2023-10-08T15:54:59;27.20;75.60
38788;DHT22;24536;45.488;12.238;2023-10-08T15:57:25;27.20;75.90
38788;DHT22;24536;45.488;12.238;2023-10-08T15:59:51;27.20;76.00
38788;DHT22;24536;45.488;12.238;2023-10-08T16:02:17;27.10;76.30